createdAt,value
2019-05-16T00:01:19.164Z,1018.7
2019-05-16T00:06:49.221Z,1018.7
2019-05-16T00:12:21.331Z,1018.6
2019-05-16T00:17:53.328Z,1018.6
2019-05-16T00:23:25.394Z,1018.6
2019-05-16T00:28:58.870Z,1018.5
2019-05-16T00:34:29.407Z,1018.4
2019-05-16T00:40:01.440Z,1018.4
2019-05-16T00:45:33.384Z,1018.3
2019-05-16T00:51:07.651Z,1018.2
2019-05-16T00:56:38.284Z,1018.2
2019-05-16T01:02:09.346Z,1018.2
2019-05-16T01:07:41.314Z,1018.1
2019-05-16T01:13:13.324Z,1018.1
2019-05-16T01:18:45.216Z,1018.1
2019-05-16T01:24:18.750Z,1018
2019-05-16T01:29:50.186Z,1018
2019-05-16T01:35:22.897Z,1017.9
2019-05-16T01:40:55.000Z,1017.8
2019-05-16T01:46:28.430Z,1017.8
2019-05-16T01:51:58.987Z,1017.8
2019-05-16T01:57:30.874Z,1018.1
2019-05-16T02:03:02.878Z,1018.3
2019-05-16T02:08:34.730Z,1018.3
2019-05-16T02:14:06.548Z,1018.3
2019-05-16T02:19:38.535Z,1018.3
2019-05-16T02:25:10.074Z,1018.5
2019-05-16T02:30:42.264Z,1018.4
2019-05-16T02:36:13.522Z,1018.4
2019-05-16T02:41:46.116Z,1018.3
2019-05-16T02:47:16.959Z,1018.3
2019-05-16T02:52:51.357Z,1018.2
2019-05-16T02:58:23.202Z,1018.3
2019-05-16T03:03:52.204Z,1018.4
2019-05-16T03:09:23.917Z,1018.4
2019-05-16T03:14:55.624Z,1018.3
2019-05-16T03:20:27.358Z,1018.3
2019-05-16T03:26:00.894Z,1018.3
2019-05-16T03:31:33.964Z,1018.2
2019-05-16T03:37:04.480Z,1018
2019-05-16T03:42:35.429Z,1018.2
2019-05-16T03:48:11.612Z,1018.2
2019-05-16T03:53:40.697Z,1018.3
2019-05-16T03:59:13.143Z,1018.2
2019-05-16T04:04:45.790Z,1018.2
2019-05-16T04:10:21.334Z,1018.2
2019-05-16T04:15:52.210Z,1018.2
2019-05-16T04:21:23.356Z,1018.2
2019-05-16T04:26:55.922Z,1018
2019-05-16T04:32:31.412Z,1018
2019-05-16T04:38:01.926Z,1017.9
2019-05-16T04:43:33.569Z,1017.9
2019-05-16T04:49:06.293Z,1018
2019-05-16T04:54:41.790Z,1018
2019-05-16T05:00:11.960Z,1017.9
2019-05-16T05:05:44.673Z,1018
2019-05-16T05:11:17.410Z,1018
2019-05-16T05:16:50.684Z,1017.9
2019-05-16T05:22:22.986Z,1017.7
2019-05-16T05:27:55.988Z,1017.4
2019-05-16T05:33:31.031Z,1017.2
2019-05-16T05:39:11.047Z,1017.1
2019-05-16T05:44:35.378Z,1017.3
2019-05-16T05:50:10.837Z,1017.2
2019-05-16T05:55:41.589Z,1017.2
2019-05-16T06:01:14.707Z,1017.2
2019-05-16T06:06:50.157Z,1016.9
2019-05-16T06:12:21.435Z,1016.6
2019-05-16T06:17:54.610Z,1016.5
2019-05-16T06:23:30.772Z,1016.4
2019-05-16T06:29:01.659Z,1016.5
2019-05-16T06:34:35.200Z,1016.5
2019-05-16T06:40:10.704Z,1016.5
2019-05-16T06:45:41.976Z,1016.3
2019-05-16T06:51:15.633Z,1016.2
2019-05-16T06:56:50.933Z,1016.1
2019-05-16T07:02:29.795Z,1016
2019-05-16T07:07:56.932Z,1015.8
2019-05-16T07:13:30.911Z,1015.7
2019-05-16T07:19:04.851Z,1015.5
2019-05-16T07:24:39.925Z,1015.4
2019-05-16T07:30:12.684Z,1015.4
2019-05-16T07:35:46.684Z,1015.4
2019-05-16T07:41:20.651Z,1015.2
2019-05-16T07:46:54.565Z,1015.2
2019-05-16T07:52:30.939Z,1015.1
2019-05-16T07:58:02.566Z,1014.8
2019-05-16T08:03:36.773Z,1014.9
2019-05-16T08:09:12.345Z,1015.1
2019-05-16T08:14:44.683Z,1015.1
2019-05-16T08:20:21.053Z,1014.8
2019-05-16T08:25:52.642Z,1014.5
2019-05-16T08:31:26.772Z,1014.5
2019-05-16T08:37:01.300Z,1014.5
2019-05-16T08:42:35.279Z,1014.1
2019-05-16T08:48:11.471Z,1014.1
2019-05-16T08:53:43.979Z,1013.8
2019-05-16T08:59:21.368Z,1013.9
2019-05-16T09:04:53.506Z,1013.7
2019-05-16T09:16:01.040Z,1013.7
2019-05-16T09:21:38.053Z,1013.8
2019-05-16T09:27:12.638Z,1013.8
2019-05-16T09:32:43.819Z,1013.7
2019-05-16T09:38:22.989Z,1013.4
2019-05-16T09:43:52.407Z,1013.2
2019-05-16T09:49:26.657Z,1013.3
2019-05-16T09:55:01.063Z,1013.4
2019-05-16T10:00:37.317Z,1013.2
2019-05-16T10:06:09.959Z,1013.2
2019-05-16T10:11:44.530Z,1013.1
2019-05-16T10:17:19.156Z,1013.1
2019-05-16T10:22:53.696Z,1012.9
2019-05-16T10:28:28.294Z,1013
2019-05-16T10:34:02.962Z,1012.8
2019-05-16T10:39:37.654Z,1012.8
2019-05-16T10:45:12.309Z,1013
2019-05-16T10:50:47.715Z,1012.8
2019-05-16T10:56:21.609Z,1012.8
2019-05-16T11:01:56.321Z,1012.8
2019-05-16T11:07:30.627Z,1012.7
2019-05-16T11:13:07.859Z,1012.3
2019-05-16T11:18:39.899Z,1012.3
2019-05-16T11:24:14.682Z,1012.5
2019-05-16T11:29:53.767Z,1012.7
2019-05-16T11:35:28.419Z,1012.3
2019-05-16T11:41:03.166Z,1012.5
2019-05-16T11:46:37.810Z,1012.5
2019-05-16T11:52:12.528Z,1012.3
2019-05-16T11:57:47.779Z,1012.5
2019-05-16T12:03:22.266Z,1012.2
2019-05-16T12:08:57.093Z,1012.4
2019-05-16T12:14:31.658Z,1012.5
2019-05-16T12:20:07.740Z,1012.5
2019-05-16T12:25:40.564Z,1012.1
2019-05-16T12:31:19.658Z,1012
2019-05-16T12:36:56.558Z,1012
2019-05-16T12:42:29.560Z,1012.1
2019-05-16T12:48:06.776Z,1011.9
2019-05-16T12:53:39.568Z,1011.8
2019-05-16T12:59:18.504Z,1011.7
2019-05-16T13:04:50.018Z,1011.6
2019-05-16T13:10:26.960Z,1011.6
2019-05-16T13:16:00.692Z,1011.5
2019-05-16T13:21:38.033Z,1011.4
2019-05-16T13:32:48.400Z,1011.4
2019-05-16T13:38:23.964Z,1011.6
2019-05-16T13:44:12.859Z,1011.7
2019-05-16T13:49:33.850Z,1011.3
2019-05-16T13:55:08.738Z,1011.1
2019-05-16T14:00:43.679Z,1011.2
2019-05-16T14:06:19.001Z,1010.7
2019-05-16T14:11:56.399Z,1010.8
2019-05-16T14:17:29.938Z,1010.5
2019-05-16T14:23:08.009Z,1010.7
2019-05-16T14:28:44.359Z,1010.6
2019-05-16T14:34:17.945Z,1010.5
2019-05-16T14:39:52.187Z,1010.3
2019-05-16T14:45:27.761Z,1010.5
2019-05-16T14:51:03.188Z,1010.3
2019-05-16T14:56:38.912Z,1010.3
2019-05-16T15:02:14.395Z,1010.3
2019-05-16T15:07:50.166Z,1010.4
2019-05-16T15:13:27.927Z,1010.1
2019-05-16T15:19:01.553Z,1010
2019-05-16T15:24:37.257Z,1010.3
2019-05-16T15:30:12.290Z,1010.5
2019-05-16T15:35:47.268Z,1010.3
2019-05-16T15:41:22.210Z,1010
2019-05-16T15:46:59.818Z,1009.6
2019-05-16T15:52:32.720Z,1010.2
2019-05-16T16:03:43.122Z,1009.5
2019-05-16T16:09:18.323Z,1009.6
2019-05-16T16:14:54.068Z,1009.6
2019-05-16T16:20:29.506Z,1009.6
2019-05-16T16:26:07.029Z,1009.6
2019-05-16T16:31:40.455Z,1009.6
2019-05-16T16:37:16.770Z,1010
2019-05-16T16:42:50.422Z,1010.2
2019-05-16T16:48:26.574Z,1009.8
2019-05-16T16:53:59.858Z,1009.7
2019-05-16T16:59:37.032Z,1009.7
2019-05-16T17:05:12.103Z,1009.8
2019-05-16T17:10:47.572Z,1009.8
2019-05-16T17:16:25.460Z,1009.8
2019-05-16T17:22:11.021Z,1009.9
2019-05-16T17:27:30.685Z,1010
2019-05-16T17:33:07.485Z,1010
2019-05-16T17:38:40.382Z,1010.1
2019-05-16T17:44:15.156Z,1010.1
2019-05-16T17:49:49.884Z,1010.1
2019-05-16T17:55:26.860Z,1010.3
2019-05-16T18:01:00.347Z,1010.4
2019-05-16T18:06:33.361Z,1010.4
2019-05-16T18:12:07.553Z,1010.4
2019-05-16T18:17:41.318Z,1010.3
2019-05-16T18:23:16.417Z,1010.4
2019-05-16T18:28:48.971Z,1010.5
2019-05-16T18:34:23.000Z,1010.7
2019-05-16T18:39:56.867Z,1010.8
2019-05-16T18:45:30.509Z,1010.7
2019-05-16T18:51:06.445Z,1010.8
2019-05-16T18:56:37.391Z,1010.9
2019-05-16T19:02:10.356Z,1011
2019-05-16T19:07:42.955Z,1011
2019-05-16T19:13:16.794Z,1011
2019-05-16T19:18:48.305Z,1011.2
2019-05-16T19:24:20.928Z,1011.3
2019-05-16T19:29:53.457Z,1011.3
2019-05-16T19:35:27.413Z,1011.4
2019-05-16T19:40:58.509Z,1011.4
2019-05-16T19:46:31.016Z,1011.3
2019-05-16T19:52:03.571Z,1011.4
2019-05-16T19:57:37.362Z,1011.5
2019-05-16T20:03:08.529Z,1011.7
2019-05-16T20:08:40.927Z,1011.7
2019-05-16T20:14:13.297Z,1011.7
2019-05-16T20:19:47.036Z,1011.7
2019-05-16T20:25:18.027Z,1011.8
2019-05-16T20:30:50.342Z,1011.8
2019-05-16T20:36:22.735Z,1011.7
2019-05-16T20:41:56.890Z,1011.7
2019-05-16T20:47:27.418Z,1011.6
2019-05-16T20:52:59.736Z,1011.7
2019-05-16T20:58:32.007Z,1011.7
2019-05-16T21:04:06.798Z,1011.6
2019-05-16T21:09:36.950Z,1011.5
2019-05-16T21:15:09.415Z,1011.5
2019-05-16T21:20:42.600Z,1011.6
2019-05-16T21:26:15.717Z,1011.6
2019-05-16T21:31:48.840Z,1011.6
2019-05-16T21:37:21.963Z,1011.6
2019-05-16T21:42:58.253Z,1011.6
2019-05-16T21:48:28.130Z,1011.5
2019-05-16T21:54:01.157Z,1011.6
2019-05-16T21:59:34.218Z,1011.6
2019-05-16T22:05:07.242Z,1011.5
2019-05-16T22:10:40.246Z,1011.5
2019-05-16T22:16:13.251Z,1011.5
2019-05-16T22:21:46.197Z,1011.5
2019-05-16T22:27:19.251Z,1011.4
2019-05-16T22:32:52.153Z,1011.3
2019-05-16T22:38:26.228Z,1011.2
2019-05-16T22:43:56.515Z,1011.1
2019-05-16T22:49:29.434Z,1011.1
2019-05-16T22:55:02.457Z,1011.2
2019-05-16T23:00:38.033Z,1011.2
2019-05-16T23:06:08.480Z,1011.1
2019-05-16T23:11:41.434Z,1011.1
2019-05-16T23:17:14.437Z,1011.1
2019-05-16T23:22:47.384Z,1011
2019-05-16T23:28:20.433Z,1011.1
2019-05-16T23:33:53.329Z,1011.2
2019-05-16T23:39:26.385Z,1011.1
2019-05-16T23:44:59.189Z,1011.1
2019-05-16T23:50:32.094Z,1011.2
2019-05-16T23:56:07.166Z,1011.1
